Meteo Giornale » Osservazioni meteo Svizzera » Lugano

ore: 11:50 - Osservazioni Meteo Lugano
Lat. 46° 0' N Lon. 8° 58' E Alt. 273 metri s.l.m.

poco_nuvoloso Europe/Zurich

25 °C

Poco Nuvoloso

Temp. 24 Ore

18 °C

26 °C

Nord/Nord-Est

14.8 Km/h

Dew point 7 °C

Umidità 31 %

Visibilità  10 Km

Il sole sorge alle ore 05:57

Il sole tramonta alle ore 21:03

Data e Ora Cielo e Fenomeni T °C DP °C Um. % Pres. hPa Vis. km Vento km/h
Oggi h: 11:50 poco_nuvoloso Poco Nuvoloso 25 7 31 1006 10 N/NE 14.8
Oggi h: 11:20 poco_nuvoloso Poco Nuvoloso 24 9 38 1006 10 N 22.2
Oggi h: 10:50 sereno Sereno 24 8 35 1006 10 N 29.6
Oggi h: 10:20 sereno Sereno 23 8 38 1006 10 N/NE 24
Oggi h: 09:50 sereno Sereno 22 7 37 1007 10 N/NE 14.8
Oggi h: 09:20 sereno Sereno 22 7 37 1007 10 N/NE 22.2
Oggi h: 08:50 sereno Sereno 21 7 40 1006 10 N/NE 18.5
Oggi h: 08:20 sereno Sereno 21 7 40 1007 10 N/NE 16.7
Oggi h: 07:50 poco_nuvoloso Poco Nuvoloso 20 7 42 1007 10 N/NE 13
Oggi h: 07:20 poco_nuvoloso Poco Nuvoloso 19 7 45 1007 10 E/NE 11.1
Oggi h: 06:20 sereno Sereno 19 7 45 1006 10 NE 7.4
Oggi h: 05:50 sereno Sereno 18 7 48 1007 10 N 3.7
Oggi h: 05:20 sereno Sereno 19 7 45 1006 10 N 3.7
Oggi h: 04:50 sereno Sereno 18 7 48 1006 10 N 5.5
Oggi h: 04:20 sereno Sereno 19 6 42 1006 10 NE 11.1
Oggi h: 03:50 sereno Sereno 20 6 39 1006 10 NE 16.7
Oggi h: 03:20 sereno Sereno 20 6 39 1007 10 NE 14.8
Oggi h: 02:50 sereno Sereno 19 6 42 1007 10 N 5.5
Oggi h: 02:20 sereno Sereno 20 6 39 1007 10 N/NE 13
Oggi h: 01:50 sereno Sereno 20 7 42 1008 10 N/NE 14.8
Oggi h: 01:20 sereno Sereno 19 7 45 1008 10 N/NE 20.3
Oggi h: 00:50 sereno Sereno 19 7 45 1008 10 N 18.5
Oggi h: 00:20 sereno Sereno 20 7 42 1008 10 N 24
Ieri h: 23:50 sereno Sereno 18 9 55 1008 10 N 5.5
Ieri h: 23:20 sereno Sereno 21 6 37 1008 10 N/NE 7.4
Ieri h: 22:50 sereno Sereno 21 6 37 1008 10 E/SE 7.4
Ieri h: 22:20 sereno Sereno 22 5 32 1007 10 N/NE 9.3
Ieri h: 21:50 poco_nuvoloso Poco Nuvoloso 22 6 35 1006 10 N 24
Ieri h: 21:20 poco_nuvoloso Poco Nuvoloso 22 6 35 1006 10 N/NE 7.4
Ieri h: 20:50 poco_nuvoloso Poco Nuvoloso 22 8 40 1006 10 NE 9.3
Ieri h: 20:20 poco_nuvoloso Poco Nuvoloso 23 9 40 1005 10 N/NE 9.3
Ieri h: 19:50 poco_nuvoloso Poco Nuvoloso 23 10 43 1005 10 N 13
Ieri h: 19:20 poco_nuvoloso Poco Nuvoloso 25 10 38 1005 10 N 18.5
Ieri h: 18:20 poco_nuvoloso Poco Nuvoloso 26 14 47 1004 10 N 16.7
Ieri h: 17:50 poco_nuvoloso Poco Nuvoloso 25 15 53 1004 10 N 5.5
Ieri h: 17:20 molto_nuvoloso Molto Nuvoloso 25 13 47 1004 10 N 24
Ieri h: 16:50 molto_nuvoloso Molto Nuvoloso 26 14 47 1004 10 N 14.8
Ieri h: 16:20 molto_nuvoloso Molto Nuvoloso 26 19 65 1004 10 N 5.5
Ieri h: 15:50 molto_nuvoloso Molto Nuvoloso 25 18 65 1004 10 N 5.5
Ieri h: 15:20 molto_nuvoloso Molto Nuvoloso 25 18 65 1004 10 S 7.4
Ieri h: 14:50 molto_nuvoloso Molto Nuvoloso 25 17 61 1004 10 N 5.5
Ieri h: 14:20 molto_nuvoloso Molto Nuvoloso 25 16 57 1004 10 N 9.3
Ieri h: 13:50 poco_nuvoloso Poco Nuvoloso 25 17 61 1004 10 SE 9.3
Ieri h: 13:20 poco_nuvoloso Poco Nuvoloso 25 18 65 1005 10 N 7.4
Ieri h: 12:50 poco_nuvoloso Poco Nuvoloso 24 18 69 1005 10 N 3.7